sensor_id;sensor_type;location;lat;lon;timestamp;temperature;humidity
19220;DHT22;9744;49.364;7.484;2023-05-10T00:02:07;11.70;99.90
19220;DHT22;9744;49.364;7.484;2023-05-10T00:04:35;11.80;99.90
19220;DHT22;9744;49.364;7.484;2023-05-10T00:07:02;11.80;99.90
19220;DHT22;9744;49.364;7.484;2023-05-10T00:09:29;11.80;99.90
19220;DHT22;9744;49.364;7.484;2023-05-10T00:11:57;11.70;99.90
19220;DHT22;9744;49.364;7.484;2023-05-10T00:14:24;11.60;99.90
19220;DHT22;9744;49.364;7.484;2023-05-10T00:16:53;11.60;99.90
19220;DHT22;9744;49.364;7.484;2023-05-10T00:19:20;11.60;99.90
19220;DHT22;9744;49.364;7.484;2023-05-10T00:21:48;11.60;99.90
19220;DHT22;9744;49.364;7.484;2023-05-10T00:24:15;11.60;99.90
19220;DHT22;9744;49.364;7.484;2023-05-10T00:26:42;11.70;99.90
19220;DHT22;9744;49.364;7.484;2023-05-10T00:29:09;11.80;99.90
19220;DHT22;9744;49.364;7.484;2023-05-10T00:31:36;11.70;99.90
19220;DHT22;9744;49.364;7.484;2023-05-10T00:34:05;11.70;99.90
19220;DHT22;9744;49.364;7.484;2023-05-10T00:36:33;11.60;99.90
19220;DHT22;9744;49.364;7.484;2023-05-10T00:39:00;11.80;99.90
19220;DHT22;9744;49.364;7.484;2023-05-10T00:41:29;11.80;99.90
19220;DHT22;9744;49.364;7.484;2023-05-10T00:43:58;11.80;99.90
19220;DHT22;9744;49.364;7.484;2023-05-10T00:46:26;11.70;99.90
19220;DHT22;9744;49.364;7.484;2023-05-10T00:48:54;11.80;99.90
19220;DHT22;9744;49.364;7.484;2023-05-10T00:51:23;11.70;99.90
19220;DHT22;9744;49.364;7.484;2023-05-10T00:53:51;11.60;99.90
19220;DHT22;9744;49.364;7.484;2023-05-10T00:56:18;11.60;99.90
19220;DHT22;9744;49.364;7.484;2023-05-10T00:58:50;11.60;99.90
19220;DHT22;9744;49.364;7.484;2023-05-10T01:01:17;11.60;99.90
19220;DHT22;9744;49.364;7.484;2023-05-10T01:03:45;11.50;99.90
19220;DHT22;9744;49.364;7.484;2023-05-10T01:06:12;11.50;99.90
19220;DHT22;9744;49.364;7.484;2023-05-10T01:08:41;11.50;99.90
19220;DHT22;9744;49.364;7.484;2023-05-10T01:11:08;11.50;99.90
19220;DHT22;9744;49.364;7.484;2023-05-10T01:13:38;11.40;99.90
19220;DHT22;9744;49.364;7.484;2023-05-10T01:16:06;11.30;99.90
19220;DHT22;9744;49.364;7.484;2023-05-10T01:18:36;11.30;99.90
19220;DHT22;9744;49.364;7.484;2023-05-10T01:21:17;11.40;99.90
19220;DHT22;9744;49.364;7.484;2023-05-10T01:24:09;11.50;99.90
19220;DHT22;9744;49.364;7.484;2023-05-10T01:27:07;11.40;99.90
19220;DHT22;9744;49.364;7.484;2023-05-10T01:30:08;11.50;99.90
19220;DHT22;9744;49.364;7.484;2023-05-10T01:32:48;11.50;99.90
19220;DHT22;9744;49.364;7.484;2023-05-10T01:35:26;11.50;99.90
19220;DHT22;9744;49.364;7.484;2023-05-10T01:38:03;11.40;99.90
19220;DHT22;9744;49.364;7.484;2023-05-10T01:40:35;11.40;99.90
19220;DHT22;9744;49.364;7.484;2023-05-10T01:43:10;11.40;99.90
19220;DHT22;9744;49.364;7.484;2023-05-10T01:45:45;11.40;99.90
19220;DHT22;9744;49.364;7.484;2023-05-10T01:48:16;11.40;99.90
19220;DHT22;9744;49.364;7.484;2023-05-10T01:50:46;11.40;99.90
19220;DHT22;9744;49.364;7.484;2023-05-10T01:53:14;11.30;99.90
19220;DHT22;9744;49.364;7.484;2023-05-10T01:55:47;11.30;99.90
19220;DHT22;9744;49.364;7.484;2023-05-10T01:58:20;11.20;99.90
19220;DHT22;9744;49.364;7.484;2023-05-10T02:00:50;11.20;99.90
19220;DHT22;9744;49.364;7.484;2023-05-10T02:03:23;11.30;99.90
19220;DHT22;9744;49.364;7.484;2023-05-10T02:05:54;11.30;99.90
19220;DHT22;9744;49.364;7.484;2023-05-10T02:08:22;11.30;99.90
19220;DHT22;9744;49.364;7.484;2023-05-10T02:10:53;11.30;99.90
19220;DHT22;9744;49.364;7.484;2023-05-10T02:13:21;11.30;99.90
19220;DHT22;9744;49.364;7.484;2023-05-10T02:15:51;11.30;99.90
19220;DHT22;9744;49.364;7.484;2023-05-10T02:18:22;11.30;99.90
19220;DHT22;9744;49.364;7.484;2023-05-10T02:20:52;11.30;99.90
19220;DHT22;9744;49.364;7.484;2023-05-10T02:23:21;11.30;99.90
19220;DHT22;9744;49.364;7.484;2023-05-10T02:25:51;11.40;99.90
19220;DHT22;9744;49.364;7.484;2023-05-10T02:28:21;11.40;99.90
19220;DHT22;9744;49.364;7.484;2023-05-10T02:30:49;11.40;99.90
19220;DHT22;9744;49.364;7.484;2023-05-10T02:33:18;11.30;99.90
19220;DHT22;9744;49.364;7.484;2023-05-10T02:35:47;11.30;99.90
19220;DHT22;9744;49.364;7.484;2023-05-10T02:38:15;11.30;99.90
19220;DHT22;9744;49.364;7.484;2023-05-10T02:40:44;11.30;99.90
19220;DHT22;9744;49.364;7.484;2023-05-10T02:43:14;11.30;99.90
19220;DHT22;9744;49.364;7.484;2023-05-10T02:45:43;11.40;99.90
19220;DHT22;9744;49.364;7.484;2023-05-10T02:48:13;11.40;99.90
19220;DHT22;9744;49.364;7.484;2023-05-10T02:50:44;11.40;99.90
19220;DHT22;9744;49.364;7.484;2023-05-10T02:53:16;11.40;99.90
19220;DHT22;9744;49.364;7.484;2023-05-10T02:55:48;11.40;99.90
19220;DHT22;9744;49.364;7.484;2023-05-10T02:58:16;11.30;99.90
19220;DHT22;9744;49.364;7.484;2023-05-10T03:00:45;11.30;99.90
19220;DHT22;9744;49.364;7.484;2023-05-10T03:03:12;11.30;99.90
19220;DHT22;9744;49.364;7.484;2023-05-10T03:05:39;11.30;99.90
19220;DHT22;9744;49.364;7.484;2023-05-10T03:08:07;11.30;99.90
19220;DHT22;9744;49.364;7.484;2023-05-10T03:10:43;11.30;99.90
19220;DHT22;9744;49.364;7.484;2023-05-10T03:13:28;11.20;99.90
19220;DHT22;9744;49.364;7.484;2023-05-10T03:15:59;11.30;99.90
19220;DHT22;9744;49.364;7.484;2023-05-10T03:18:33;11.30;99.90
19220;DHT22;9744;49.364;7.484;2023-05-10T03:21:06;11.30;99.90
19220;DHT22;9744;49.364;7.484;2023-05-10T03:23:41;11.30;99.90
19220;DHT22;9744;49.364;7.484;2023-05-10T03:26:17;11.30;99.90
19220;DHT22;9744;49.364;7.484;2023-05-10T03:28:45;11.30;99.90
19220;DHT22;9744;49.364;7.484;2023-05-10T03:31:14;11.30;99.90
19220;DHT22;9744;49.364;7.484;2023-05-10T03:33:46;11.30;99.90
19220;DHT22;9744;49.364;7.484;2023-05-10T03:36:16;11.30;99.90
19220;DHT22;9744;49.364;7.484;2023-05-10T03:38:43;11.30;99.90
19220;DHT22;9744;49.364;7.484;2023-05-10T03:41:12;11.30;99.90
19220;DHT22;9744;49.364;7.484;2023-05-10T03:43:39;11.30;99.90
19220;DHT22;9744;49.364;7.484;2023-05-10T03:46:07;11.30;99.90
19220;DHT22;9744;49.364;7.484;2023-05-10T03:48:34;11.20;99.90
19220;DHT22;9744;49.364;7.484;2023-05-10T03:51:01;11.20;99.90
19220;DHT22;9744;49.364;7.484;2023-05-10T03:53:30;11.30;99.90
19220;DHT22;9744;49.364;7.484;2023-05-10T03:55:57;11.30;99.90
19220;DHT22;9744;49.364;7.484;2023-05-10T03:58:26;11.30;99.90
19220;DHT22;9744;49.364;7.484;2023-05-10T04:00:54;11.30;99.90
19220;DHT22;9744;49.364;7.484;2023-05-10T04:03:24;11.30;99.90
19220;DHT22;9744;49.364;7.484;2023-05-10T04:05:59;11.30;99.90
19220;DHT22;9744;49.364;7.484;2023-05-10T04:08:26;11.30;99.90
19220;DHT22;9744;49.364;7.484;2023-05-10T04:10:54;11.20;99.90
19220;DHT22;9744;49.364;7.484;2023-05-10T04:13:22;11.30;99.90
19220;DHT22;9744;49.364;7.484;2023-05-10T04:15:50;11.20;99.90
19220;DHT22;9744;49.364;7.484;2023-05-10T04:18:18;11.20;99.90
19220;DHT22;9744;49.364;7.484;2023-05-10T04:20:45;11.20;99.90
19220;DHT22;9744;49.364;7.484;2023-05-10T04:23:12;11.10;99.90
19220;DHT22;9744;49.364;7.484;2023-05-10T04:25:46;11.10;99.90
19220;DHT22;9744;49.364;7.484;2023-05-10T04:28:13;11.10;99.90
19220;DHT22;9744;49.364;7.484;2023-05-10T04:30:40;11.10;99.90
19220;DHT22;9744;49.364;7.484;2023-05-10T04:33:09;11.20;99.90
19220;DHT22;9744;49.364;7.484;2023-05-10T04:35:36;11.10;99.90
19220;DHT22;9744;49.364;7.484;2023-05-10T04:38:04;11.10;99.90
19220;DHT22;9744;49.364;7.484;2023-05-10T04:40:31;11.00;99.90
19220;DHT22;9744;49.364;7.484;2023-05-10T04:42:58;11.10;99.90
19220;DHT22;9744;49.364;7.484;2023-05-10T04:45:26;11.00;99.90
19220;DHT22;9744;49.364;7.484;2023-05-10T04:47:53;11.00;99.90
19220;DHT22;9744;49.364;7.484;2023-05-10T04:50:21;11.10;99.90
19220;DHT22;9744;49.364;7.484;2023-05-10T04:52:48;11.10;99.90
19220;DHT22;9744;49.364;7.484;2023-05-10T04:55:16;11.20;99.90
19220;DHT22;9744;49.364;7.484;2023-05-10T04:57:44;11.20;99.90
19220;DHT22;9744;49.364;7.484;2023-05-10T05:00:12;11.20;99.90
19220;DHT22;9744;49.364;7.484;2023-05-10T05:02:42;11.20;99.90
19220;DHT22;9744;49.364;7.484;2023-05-10T05:05:11;11.20;99.90
19220;DHT22;9744;49.364;7.484;2023-05-10T05:07:39;11.20;99.90
19220;DHT22;9744;49.364;7.484;2023-05-10T05:10:07;11.20;99.90
19220;DHT22;9744;49.364;7.484;2023-05-10T05:12:35;11.20;99.90
19220;DHT22;9744;49.364;7.484;2023-05-10T05:15:04;11.20;99.90
19220;DHT22;9744;49.364;7.484;2023-05-10T05:17:32;11.10;99.90
19220;DHT22;9744;49.364;7.484;2023-05-10T05:19:59;11.10;99.90
19220;DHT22;9744;49.364;7.484;2023-05-10T05:22:26;11.10;99.90
19220;DHT22;9744;49.364;7.484;2023-05-10T05:24:55;11.10;99.90
19220;DHT22;9744;49.364;7.484;2023-05-10T05:27:24;11.10;99.90
19220;DHT22;9744;49.364;7.484;2023-05-10T05:29:53;11.20;99.90
19220;DHT22;9744;49.364;7.484;2023-05-10T05:32:22;11.20;99.90
19220;DHT22;9744;49.364;7.484;2023-05-10T05:34:49;11.30;99.90
19220;DHT22;9744;49.364;7.484;2023-05-10T05:37:18;11.30;99.90
19220;DHT22;9744;49.364;7.484;2023-05-10T05:39:45;11.30;99.90
19220;DHT22;9744;49.364;7.484;2023-05-10T05:42:14;11.40;99.90
19220;DHT22;9744;49.364;7.484;2023-05-10T05:44:42;11.40;99.90
19220;DHT22;9744;49.364;7.484;2023-05-10T05:47:10;11.30;99.90
19220;DHT22;9744;49.364;7.484;2023-05-10T05:49:37;11.40;99.90
19220;DHT22;9744;49.364;7.484;2023-05-10T05:52:05;11.50;99.90
19220;DHT22;9744;49.364;7.484;2023-05-10T05:54:32;11.40;99.90
19220;DHT22;9744;49.364;7.484;2023-05-10T05:57:00;11.40;99.90
19220;DHT22;9744;49.364;7.484;2023-05-10T05:59:29;11.30;99.90
19220;DHT22;9744;49.364;7.484;2023-05-10T06:01:57;11.40;99.90
19220;DHT22;9744;49.364;7.484;2023-05-10T06:04:28;11.40;99.90
19220;DHT22;9744;49.364;7.484;2023-05-10T06:06:55;11.40;99.90
19220;DHT22;9744;49.364;7.484;2023-05-10T06:09:26;11.50;99.90
19220;DHT22;9744;49.364;7.484;2023-05-10T06:11:53;11.60;99.90
19220;DHT22;9744;49.364;7.484;2023-05-10T06:14:21;11.60;99.90
19220;DHT22;9744;49.364;7.484;2023-05-10T06:16:49;11.60;99.90
19220;DHT22;9744;49.364;7.484;2023-05-10T06:19:17;11.60;99.90
19220;DHT22;9744;49.364;7.484;2023-05-10T06:21:44;11.50;99.90
19220;DHT22;9744;49.364;7.484;2023-05-10T06:24:11;11.40;99.90
19220;DHT22;9744;49.364;7.484;2023-05-10T06:26:38;11.30;99.90
19220;DHT22;9744;49.364;7.484;2023-05-10T06:29:06;11.40;99.90
19220;DHT22;9744;49.364;7.484;2023-05-10T06:31:33;11.30;99.90
19220;DHT22;9744;49.364;7.484;2023-05-10T06:34:04;11.40;99.90
19220;DHT22;9744;49.364;7.484;2023-05-10T06:36:33;11.40;99.90
19220;DHT22;9744;49.364;7.484;2023-05-10T06:39:01;11.50;99.90
19220;DHT22;9744;49.364;7.484;2023-05-10T06:41:28;11.50;99.90
19220;DHT22;9744;49.364;7.484;2023-05-10T06:43:55;11.40;99.90
19220;DHT22;9744;49.364;7.484;2023-05-10T06:46:24;11.40;99.90
19220;DHT22;9744;49.364;7.484;2023-05-10T06:48:51;11.40;99.90
19220;DHT22;9744;49.364;7.484;2023-05-10T06:51:20;11.40;99.90
19220;DHT22;9744;49.364;7.484;2023-05-10T06:53:47;11.40;99.90
19220;DHT22;9744;49.364;7.484;2023-05-10T06:56:15;11.40;99.90
19220;DHT22;9744;49.364;7.484;2023-05-10T06:58:42;11.50;99.90
19220;DHT22;9744;49.364;7.484;2023-05-10T07:01:10;11.60;99.90
19220;DHT22;9744;49.364;7.484;2023-05-10T07:03:40;11.70;99.90
19220;DHT22;9744;49.364;7.484;2023-05-10T07:06:08;11.70;99.90
19220;DHT22;9744;49.364;7.484;2023-05-10T07:08:37;11.70;99.90
19220;DHT22;9744;49.364;7.484;2023-05-10T07:11:06;11.60;99.90
19220;DHT22;9744;49.364;7.484;2023-05-10T07:13:34;11.60;99.90
19220;DHT22;9744;49.364;7.484;2023-05-10T07:16:02;11.60;99.90
19220;DHT22;9744;49.364;7.484;2023-05-10T07:18:30;11.60;99.90
19220;DHT22;9744;49.364;7.484;2023-05-10T07:20:57;11.70;99.90
19220;DHT22;9744;49.364;7.484;2023-05-10T07:23:24;11.80;99.90
19220;DHT22;9744;49.364;7.484;2023-05-10T07:25:53;12.00;99.90
19220;DHT22;9744;49.364;7.484;2023-05-10T07:28:22;12.10;99.90
19220;DHT22;9744;49.364;7.484;2023-05-10T07:30:50;12.00;99.90
19220;DHT22;9744;49.364;7.484;2023-05-10T07:33:17;11.90;99.90
19220;DHT22;9744;49.364;7.484;2023-05-10T07:35:44;11.80;99.90
19220;DHT22;9744;49.364;7.484;2023-05-10T07:38:11;11.80;99.90
19220;DHT22;9744;49.364;7.484;2023-05-10T07:41:12;11.70;99.90
19220;DHT22;9744;49.364;7.484;2023-05-10T07:43:39;11.60;99.90
19220;DHT22;9744;49.364;7.484;2023-05-10T07:46:07;11.60;99.90
19220;DHT22;9744;49.364;7.484;2023-05-10T07:48:36;11.60;99.90
19220;DHT22;9744;49.364;7.484;2023-05-10T07:51:04;11.60;99.90
19220;DHT22;9744;49.364;7.484;2023-05-10T07:53:32;11.50;99.90
19220;DHT22;9744;49.364;7.484;2023-05-10T07:55:59;11.60;99.90
19220;DHT22;9744;49.364;7.484;2023-05-10T07:58:28;11.60;99.90
19220;DHT22;9744;49.364;7.484;2023-05-10T08:00:55;11.60;99.90
19220;DHT22;9744;49.364;7.484;2023-05-10T08:03:22;11.70;99.90
19220;DHT22;9744;49.364;7.484;2023-05-10T08:05:49;11.60;99.90
19220;DHT22;9744;49.364;7.484;2023-05-10T08:08:16;11.60;99.90
19220;DHT22;9744;49.364;7.484;2023-05-10T08:10:44;11.60;99.90
19220;DHT22;9744;49.364;7.484;2023-05-10T08:13:11;11.60;99.90
19220;DHT22;9744;49.364;7.484;2023-05-10T08:15:40;11.60;99.90
19220;DHT22;9744;49.364;7.484;2023-05-10T08:18:07;11.60;99.90
19220;DHT22;9744;49.364;7.484;2023-05-10T08:20:34;11.60;99.90
19220;DHT22;9744;49.364;7.484;2023-05-10T08:23:01;11.40;99.90
19220;DHT22;9744;49.364;7.484;2023-05-10T08:25:28;11.40;99.90
19220;DHT22;9744;49.364;7.484;2023-05-10T08:27:56;11.40;99.90
19220;DHT22;9744;49.364;7.484;2023-05-10T08:30:23;11.40;99.90
19220;DHT22;9744;49.364;7.484;2023-05-10T08:32:52;11.40;99.90
19220;DHT22;9744;49.364;7.484;2023-05-10T08:35:19;11.40;99.90
19220;DHT22;9744;49.364;7.484;2023-05-10T08:37:48;11.40;99.90
19220;DHT22;9744;49.364;7.484;2023-05-10T08:40:19;11.50;99.90
19220;DHT22;9744;49.364;7.484;2023-05-10T08:42:51;11.60;99.90
19220;DHT22;9744;49.364;7.484;2023-05-10T08:45:22;11.70;99.90
19220;DHT22;9744;49.364;7.484;2023-05-10T08:47:51;11.80;99.90
19220;DHT22;9744;49.364;7.484;2023-05-10T08:50:20;11.90;99.90
19220;DHT22;9744;49.364;7.484;2023-05-10T08:52:50;11.90;99.90
19220;DHT22;9744;49.364;7.484;2023-05-10T08:55:19;12.10;99.90
19220;DHT22;9744;49.364;7.484;2023-05-10T08:57:46;12.30;99.90
19220;DHT22;9744;49.364;7.484;2023-05-10T09:00:15;12.40;99.90
19220;DHT22;9744;49.364;7.484;2023-05-10T09:02:43;12.50;99.90
19220;DHT22;9744;49.364;7.484;2023-05-10T09:05:13;12.60;99.90
19220;DHT22;9744;49.364;7.484;2023-05-10T09:07:43;12.60;99.90
19220;DHT22;9744;49.364;7.484;2023-05-10T09:10:13;12.30;99.90
19220;DHT22;9744;49.364;7.484;2023-05-10T09:12:43;12.20;99.90
19220;DHT22;9744;49.364;7.484;2023-05-10T09:15:11;12.20;99.90
19220;DHT22;9744;49.364;7.484;2023-05-10T09:17:40;12.20;99.90
19220;DHT22;9744;49.364;7.484;2023-05-10T09:20:08;12.10;99.90
19220;DHT22;9744;49.364;7.484;2023-05-10T09:22:37;12.10;99.90
19220;DHT22;9744;49.364;7.484;2023-05-10T09:25:06;12.20;99.90
19220;DHT22;9744;49.364;7.484;2023-05-10T09:27:34;12.20;99.90
19220;DHT22;9744;49.364;7.484;2023-05-10T09:30:02;12.40;99.90
19220;DHT22;9744;49.364;7.484;2023-05-10T09:32:37;12.60;99.90
19220;DHT22;9744;49.364;7.484;2023-05-10T09:35:08;12.80;99.90
19220;DHT22;9744;49.364;7.484;2023-05-10T09:37:39;12.90;99.90
19220;DHT22;9744;49.364;7.484;2023-05-10T09:40:08;13.00;99.90
19220;DHT22;9744;49.364;7.484;2023-05-10T09:42:38;13.20;99.90
19220;DHT22;9744;49.364;7.484;2023-05-10T09:45:07;13.40;99.90
19220;DHT22;9744;49.364;7.484;2023-05-10T09:47:34;13.70;99.90
19220;DHT22;9744;49.364;7.484;2023-05-10T09:50:03;14.00;99.90
19220;DHT22;9744;49.364;7.484;2023-05-10T09:52:47;14.20;99.90
19220;DHT22;9744;49.364;7.484;2023-05-10T09:55:15;14.40;99.90
19220;DHT22;9744;49.364;7.484;2023-05-10T09:57:42;14.60;99.90
19220;DHT22;9744;49.364;7.484;2023-05-10T10:00:10;14.90;99.90
19220;DHT22;9744;49.364;7.484;2023-05-10T10:02:44;14.90;99.90
19220;DHT22;9744;49.364;7.484;2023-05-10T10:05:11;14.90;99.90
19220;DHT22;9744;49.364;7.484;2023-05-10T10:07:39;14.70;99.90
19220;DHT22;9744;49.364;7.484;2023-05-10T10:10:09;14.70;99.90
19220;DHT22;9744;49.364;7.484;2023-05-10T10:12:39;14.50;99.90
19220;DHT22;9744;49.364;7.484;2023-05-10T10:15:08;14.20;99.90
19220;DHT22;9744;49.364;7.484;2023-05-10T10:17:36;13.90;99.90
19220;DHT22;9744;49.364;7.484;2023-05-10T10:20:06;13.30;99.90
19220;DHT22;9744;49.364;7.484;2023-05-10T10:22:34;12.90;99.90
19220;DHT22;9744;49.364;7.484;2023-05-10T10:25:03;12.60;99.90
19220;DHT22;9744;49.364;7.484;2023-05-10T10:27:39;12.50;99.90
19220;DHT22;9744;49.364;7.484;2023-05-10T10:30:16;12.50;99.90
19220;DHT22;9744;49.364;7.484;2023-05-10T10:33:13;12.60;99.90
19220;DHT22;9744;49.364;7.484;2023-05-10T10:35:41;12.60;99.90
19220;DHT22;9744;49.364;7.484;2023-05-10T10:38:12;12.70;99.90
19220;DHT22;9744;49.364;7.484;2023-05-10T10:40:40;12.80;99.90
19220;DHT22;9744;49.364;7.484;2023-05-10T10:43:25;13.00;99.90
19220;DHT22;9744;49.364;7.484;2023-05-10T10:46:12;13.60;99.90
19220;DHT22;9744;49.364;7.484;2023-05-10T10:48:40;14.00;99.90
19220;DHT22;9744;49.364;7.484;2023-05-10T10:51:08;14.20;99.90
19220;DHT22;9744;49.364;7.484;2023-05-10T10:53:37;14.40;99.90
19220;DHT22;9744;49.364;7.484;2023-05-10T10:56:06;14.40;99.90
19220;DHT22;9744;49.364;7.484;2023-05-10T10:58:37;14.20;99.90
19220;DHT22;9744;49.364;7.484;2023-05-10T11:01:13;14.10;99.90
19220;DHT22;9744;49.364;7.484;2023-05-10T11:03:41;13.90;99.90
19220;DHT22;9744;49.364;7.484;2023-05-10T11:06:08;13.70;99.90
19220;DHT22;9744;49.364;7.484;2023-05-10T11:08:42;13.60;99.90
19220;DHT22;9744;49.364;7.484;2023-05-10T11:11:19;13.50;99.90
19220;DHT22;9744;49.364;7.484;2023-05-10T11:13:48;13.70;99.90
19220;DHT22;9744;49.364;7.484;2023-05-10T11:16:17;13.80;99.90
19220;DHT22;9744;49.364;7.484;2023-05-10T11:18:58;14.10;99.90
19220;DHT22;9744;49.364;7.484;2023-05-10T11:21:27;14.40;99.90
19220;DHT22;9744;49.364;7.484;2023-05-10T11:23:55;14.60;99.90
19220;DHT22;9744;49.364;7.484;2023-05-10T11:26:23;14.60;99.90
19220;DHT22;9744;49.364;7.484;2023-05-10T11:28:54;14.80;99.90
19220;DHT22;9744;49.364;7.484;2023-05-10T11:31:22;14.80;99.90
19220;DHT22;9744;49.364;7.484;2023-05-10T11:33:53;14.90;99.90
19220;DHT22;9744;49.364;7.484;2023-05-10T11:36:22;15.00;99.90
19220;DHT22;9744;49.364;7.484;2023-05-10T11:38:51;15.00;99.90
19220;DHT22;9744;49.364;7.484;2023-05-10T11:41:19;14.80;99.90
19220;DHT22;9744;49.364;7.484;2023-05-10T11:43:59;15.00;99.90
19220;DHT22;9744;49.364;7.484;2023-05-10T11:46:27;15.30;99.90
19220;DHT22;9744;49.364;7.484;2023-05-10T11:48:59;15.60;99.90
19220;DHT22;9744;49.364;7.484;2023-05-10T11:51:33;16.00;99.90
19220;DHT22;9744;49.364;7.484;2023-05-10T11:54:05;16.20;99.90
19220;DHT22;9744;49.364;7.484;2023-05-10T11:56:33;16.40;99.90
19220;DHT22;9744;49.364;7.484;2023-05-10T11:59:01;16.20;99.90
19220;DHT22;9744;49.364;7.484;2023-05-10T12:01:29;16.10;99.90
19220;DHT22;9744;49.364;7.484;2023-05-10T12:03:58;16.00;99.90
19220;DHT22;9744;49.364;7.484;2023-05-10T12:06:27;15.80;99.90
19220;DHT22;9744;49.364;7.484;2023-05-10T12:08:59;15.40;99.90
19220;DHT22;9744;49.364;7.484;2023-05-10T12:11:32;15.00;99.90
19220;DHT22;9744;49.364;7.484;2023-05-10T12:14:05;14.80;99.90
19220;DHT22;9744;49.364;7.484;2023-05-10T12:16:33;14.70;99.90
19220;DHT22;9744;49.364;7.484;2023-05-10T12:19:01;15.00;99.90
19220;DHT22;9744;49.364;7.484;2023-05-10T12:21:29;15.30;99.90
19220;DHT22;9744;49.364;7.484;2023-05-10T12:23:59;15.20;99.90
19220;DHT22;9744;49.364;7.484;2023-05-10T12:26:28;15.00;99.90
19220;DHT22;9744;49.364;7.484;2023-05-10T12:29:01;14.90;99.90
19220;DHT22;9744;49.364;7.484;2023-05-10T12:31:53;15.00;99.90
19220;DHT22;9744;49.364;7.484;2023-05-10T12:34:25;14.70;99.90
19220;DHT22;9744;49.364;7.484;2023-05-10T12:37:17;14.80;99.90
19220;DHT22;9744;49.364;7.484;2023-05-10T12:39:50;15.00;99.90
19220;DHT22;9744;49.364;7.484;2023-05-10T12:42:17;15.30;99.90
19220;DHT22;9744;49.364;7.484;2023-05-10T12:44:44;15.50;99.90
19220;DHT22;9744;49.364;7.484;2023-05-10T12:47:13;15.50;99.90
19220;DHT22;9744;49.364;7.484;2023-05-10T12:49:40;15.30;99.90
19220;DHT22;9744;49.364;7.484;2023-05-10T12:52:08;15.70;99.90
19220;DHT22;9744;49.364;7.484;2023-05-10T12:54:38;16.00;99.90
19220;DHT22;9744;49.364;7.484;2023-05-10T12:57:05;16.40;99.90
19220;DHT22;9744;49.364;7.484;2023-05-10T12:59:33;16.70;99.90
19220;DHT22;9744;49.364;7.484;2023-05-10T13:02:00;16.80;99.90
19220;DHT22;9744;49.364;7.484;2023-05-10T13:04:29;16.90;99.90
19220;DHT22;9744;49.364;7.484;2023-05-10T13:06:56;17.70;99.90
19220;DHT22;9744;49.364;7.484;2023-05-10T13:09:24;17.50;99.90
19220;DHT22;9744;49.364;7.484;2023-05-10T13:11:52;17.70;99.90
19220;DHT22;9744;49.364;7.484;2023-05-10T13:14:20;17.70;99.90
19220;DHT22;9744;49.364;7.484;2023-05-10T13:16:47;18.20;99.90
19220;DHT22;9744;49.364;7.484;2023-05-10T13:19:16;18.80;99.90
19220;DHT22;9744;49.364;7.484;2023-05-10T13:21:45;19.00;99.90
19220;DHT22;9744;49.364;7.484;2023-05-10T13:24:12;18.60;99.90
19220;DHT22;9744;49.364;7.484;2023-05-10T13:26:40;18.20;99.90
19220;DHT22;9744;49.364;7.484;2023-05-10T13:29:07;17.90;99.90
19220;DHT22;9744;49.364;7.484;2023-05-10T13:31:35;17.50;99.90
19220;DHT22;9744;49.364;7.484;2023-05-10T13:34:04;17.40;99.90
19220;DHT22;9744;49.364;7.484;2023-05-10T13:36:31;17.40;99.90
19220;DHT22;9744;49.364;7.484;2023-05-10T13:39:02;17.70;99.90
19220;DHT22;9744;49.364;7.484;2023-05-10T13:41:31;17.50;99.90
19220;DHT22;9744;49.364;7.484;2023-05-10T13:43:58;17.50;99.90
19220;DHT22;9744;49.364;7.484;2023-05-10T13:46:25;18.10;99.90
19220;DHT22;9744;49.364;7.484;2023-05-10T13:48:53;18.40;99.90
19220;DHT22;9744;49.364;7.484;2023-05-10T13:51:20;18.70;99.90
19220;DHT22;9744;49.364;7.484;2023-05-10T13:53:47;18.60;99.90
19220;DHT22;9744;49.364;7.484;2023-05-10T13:56:16;18.70;99.90
19220;DHT22;9744;49.364;7.484;2023-05-10T13:58:43;18.90;99.90
19220;DHT22;9744;49.364;7.484;2023-05-10T14:01:10;18.60;99.90
19220;DHT22;9744;49.364;7.484;2023-05-10T14:03:38;18.60;99.90
19220;DHT22;9744;49.364;7.484;2023-05-10T14:06:05;18.70;99.90
19220;DHT22;9744;49.364;7.484;2023-05-10T14:08:33;19.30;99.90
19220;DHT22;9744;49.364;7.484;2023-05-10T14:11:00;19.40;99.90
19220;DHT22;9744;49.364;7.484;2023-05-10T14:13:29;19.60;99.90
19220;DHT22;9744;49.364;7.484;2023-05-10T14:15:56;20.30;99.90
19220;DHT22;9744;49.364;7.484;2023-05-10T14:18:26;20.20;99.90
19220;DHT22;9744;49.364;7.484;2023-05-10T14:20:54;20.30;99.90
19220;DHT22;9744;49.364;7.484;2023-05-10T14:23:23;19.90;99.90
19220;DHT22;9744;49.364;7.484;2023-05-10T14:25:51;19.90;99.90
19220;DHT22;9744;49.364;7.484;2023-05-10T14:28:19;19.80;99.90
19220;DHT22;9744;49.364;7.484;2023-05-10T14:30:49;19.70;99.90
19220;DHT22;9744;49.364;7.484;2023-05-10T14:33:17;19.80;99.90
19220;DHT22;9744;49.364;7.484;2023-05-10T14:35:45;20.20;99.90
19220;DHT22;9744;49.364;7.484;2023-05-10T14:38:12;20.40;99.90
19220;DHT22;9744;49.364;7.484;2023-05-10T14:40:39;20.30;99.90
19220;DHT22;9744;49.364;7.484;2023-05-10T14:43:06;19.70;99.90
19220;DHT22;9744;49.364;7.484;2023-05-10T14:45:34;19.60;99.90
19220;DHT22;9744;49.364;7.484;2023-05-10T14:48:02;19.80;99.90
19220;DHT22;9744;49.364;7.484;2023-05-10T14:50:30;19.60;99.90
19220;DHT22;9744;49.364;7.484;2023-05-10T14:52:57;19.60;99.90
19220;DHT22;9744;49.364;7.484;2023-05-10T14:55:25;20.10;99.90
19220;DHT22;9744;49.364;7.484;2023-05-10T14:57:52;20.00;99.90
19220;DHT22;9744;49.364;7.484;2023-05-10T15:00:20;19.90;99.90
19220;DHT22;9744;49.364;7.484;2023-05-10T15:02:48;19.90;99.90
19220;DHT22;9744;49.364;7.484;2023-05-10T15:05:16;20.00;99.90
19220;DHT22;9744;49.364;7.484;2023-05-10T15:07:44;19.80;99.90
19220;DHT22;9744;49.364;7.484;2023-05-10T15:10:12;19.20;99.90
19220;DHT22;9744;49.364;7.484;2023-05-10T15:12:40;18.70;99.90
19220;DHT22;9744;49.364;7.484;2023-05-10T15:15:07;18.60;99.90
19220;DHT22;9744;49.364;7.484;2023-05-10T15:17:35;18.10;99.90
19220;DHT22;9744;49.364;7.484;2023-05-10T15:20:02;17.70;99.90
19220;DHT22;9744;49.364;7.484;2023-05-10T15:22:31;17.70;99.90
19220;DHT22;9744;49.364;7.484;2023-05-10T15:24:59;17.70;99.90
19220;DHT22;9744;49.364;7.484;2023-05-10T15:27:26;17.90;99.90
19220;DHT22;9744;49.364;7.484;2023-05-10T15:29:53;18.10;99.90
19220;DHT22;9744;49.364;7.484;2023-05-10T15:32:21;18.10;99.90
19220;DHT22;9744;49.364;7.484;2023-05-10T15:34:48;18.40;99.90
19220;DHT22;9744;49.364;7.484;2023-05-10T15:37:15;18.90;99.90
19220;DHT22;9744;49.364;7.484;2023-05-10T15:39:44;19.30;99.90
19220;DHT22;9744;49.364;7.484;2023-05-10T15:42:12;19.30;99.90
19220;DHT22;9744;49.364;7.484;2023-05-10T15:44:39;18.80;99.90
19220;DHT22;9744;49.364;7.484;2023-05-10T15:47:06;18.30;99.90
19220;DHT22;9744;49.364;7.484;2023-05-10T15:49:34;17.30;99.90
19220;DHT22;9744;49.364;7.484;2023-05-10T15:52:01;17.10;99.90
19220;DHT22;9744;49.364;7.484;2023-05-10T15:54:28;16.80;99.90
19220;DHT22;9744;49.364;7.484;2023-05-10T15:56:58;16.30;99.90
19220;DHT22;9744;49.364;7.484;2023-05-10T15:59:26;16.30;99.90